Time;durP1;ratioP1;P1;durP2;ratioP2;P2;SDS_P1;SDS_P2;PMS_P1;PMS_P2;Temp;Humidity;BMP_temperature;BMP_pressure;BME280_temperature;BME280_humidity;BME280_pressure;Samples;Min_cycle;Max_cycle;Signal;HPM_P1;HPM_P2
2022/08/05 00:01:13;;;;;;;4.47;1.50;;;19.90;99.90;;;;;;5111745;28;20198;-69
2022/08/05 00:03:41;;;;;;;4.93;1.50;;;19.70;99.90;;;;;;5096845;28;20265;-66
2022/08/05 00:06:09;;;;;;;4.57;1.40;;;19.60;99.90;;;;;;5111349;28;20237;-68
2022/08/05 00:08:38;;;;;;;2.50;1.40;;;20.20;99.90;;;;;;5111538;28;20178;-67
2022/08/05 00:11:08;;;;;;;3.20;1.33;;;21.10;99.90;;;;;;5111668;28;20185;-67
2022/08/05 00:13:38;;;;;;;6.67;1.63;;;21.20;99.90;;;;;;5111553;28;20205;-68
2022/08/05 00:16:08;;;;;;;9.10;1.40;;;21.20;99.90;;;;;;5111606;28;20178;-67
2022/08/05 00:18:38;;;;;;;5.77;1.50;;;21.00;99.90;;;;;;5099191;28;20211;-67
2022/08/05 00:21:06;;;;;;;4.43;1.30;;;20.60;99.90;;;;;;5092294;28;20181;-66
2022/08/05 00:23:34;;;;;;;3.77;1.47;;;20.30;99.90;;;;;;5093774;28;20203;-69
2022/08/05 00:26:02;;;;;;;4.03;1.60;;;20.30;99.90;;;;;;5094854;28;20202;-67
2022/08/05 00:28:30;;;;;;;2.87;1.37;;;20.10;99.90;;;;;;5094016;28;20615;-68
2022/08/05 00:30:58;;;;;;;5.40;1.60;;;19.90;99.90;;;;;;5094617;28;20187;-67
2022/08/05 00:33:25;;;;;;;2.23;1.30;;;19.80;99.90;;;;;;5094516;28;20220;-68
2022/08/05 00:35:53;;;;;;;5.83;1.40;;;19.80;99.90;;;;;;5094668;28;20216;-67
2022/08/05 00:38:21;;;;;;;13.93;1.80;;;19.60;99.90;;;;;;5094427;28;20545;-68
2022/08/05 00:40:51;;;;;;;5.33;2.10;;;19.40;99.90;;;;;;5077825;28;20652;-66
2022/08/05 00:43:20;;;;;;;7.10;1.43;;;19.30;99.90;;;;;;5073946;28;20239;-65
2022/08/05 00:45:48;;;;;;;3.63;1.80;;;19.20;99.90;;;;;;5074269;28;20273;-67
2022/08/05 00:48:18;;;;;;;13.10;2.40;;;19.20;99.90;;;;;;5082681;28;20554;-66
2022/08/05 00:50:48;;;;;;;8.27;2.17;;;19.10;99.90;;;;;;5079489;28;20187;-65
2022/08/05 00:53:19;;;;;;;6.53;1.60;;;19.10;99.90;;;;;;5088490;28;20186;-68
2022/08/05 00:55:47;;;;;;;3.10;1.67;;;19.10;99.90;;;;;;5094506;28;20629;-65
2022/08/05 00:58:16;;;;;;;5.83;1.90;;;19.20;99.90;;;;;;5092078;28;20599;-67
2022/08/05 01:00:45;;;;;;;7.93;2.20;;;19.20;99.90;;;;;;5071359;28;20191;-66
2022/08/05 01:03:13;;;;;;;3.60;1.90;;;19.30;99.90;;;;;;5072969;28;20222;-70
2022/08/05 01:05:42;;;;;;;4.93;2.13;;;19.30;99.90;;;;;;5055370;28;20546;-67
2022/08/05 01:08:10;;;;;;;11.60;2.00;;;19.30;99.90;;;;;;5053768;28;20722;-67
2022/08/05 01:11:04;;;;;;;4.63;1.90;;;19.20;99.90;;;;;;5063373;28;20183;-68
2022/08/05 01:14:00;;;;;;;4.97;1.77;;;19.30;99.90;;;;;;5066713;28;20195;-67
2022/08/05 01:17:03;;;;;;;6.23;1.97;;;19.30;99.90;;;;;;5072940;28;20172;-70
2022/08/05 01:19:51;;;;;;;2.93;1.40;;;19.30;99.90;;;;;;5082211;28;20548;-69
2022/08/05 01:22:56;;;;;;;9.93;2.07;;;19.50;99.90;;;;;;5071083;28;20242;-67
2022/08/05 01:25:42;;;;;;;3.77;1.77;;;19.60;99.90;;;;;;5053322;28;20615;-68
2022/08/05 01:28:15;;;;;;;3.80;1.67;;;20.10;99.90;;;;;;5053361;28;20207;-68
2022/08/05 01:31:01;;;;;;;9.77;1.87;;;20.40;99.90;;;;;;5053154;28;20628;-69
2022/08/05 01:33:35;;;;;;;5.40;1.57;;;20.80;99.90;;;;;;5055235;28;20679;-66
2022/08/05 01:36:12;;;;;;;3.27;1.57;;;21.70;99.90;;;;;;5054883;28;20200;-70
2022/08/05 01:38:40;;;;;;;3.30;1.20;;;22.60;99.90;;;;;;5066209;28;20271;-68
2022/08/05 01:41:10;;;;;;;4.63;1.33;;;22.90;99.90;;;;;;5055255;28;20219;-71
2022/08/05 01:43:38;;;;;;;3.60;1.27;;;23.10;99.90;;;;;;5062909;28;20212;-67
2022/08/05 01:46:06;;;;;;;3.47;1.30;;;23.10;99.90;;;;;;5053010;28;20180;-66
2022/08/05 01:48:37;;;;;;;3.67;1.20;;;22.90;99.90;;;;;;5052539;28;20184;-67
2022/08/05 01:51:06;;;;;;;2.33;0.87;;;23.80;99.90;;;;;;5056512;28;20231;-68
2022/08/05 01:53:36;;;;;;;2.27;1.23;;;24.20;99.90;;;;;;5068015;28;20687;-67
2022/08/05 01:56:05;;;;;;;4.47;1.40;;;23.90;99.90;;;;;;5055788;28;20647;-70
2022/08/05 01:58:34;;;;;;;2.97;1.13;;;24.10;99.90;;;;;;5070300;28;20187;-68
2022/08/05 02:01:04;;;;;;;7.63;1.70;;;24.50;99.90;;;;;;5064087;28;20198;-67
2022/08/05 02:03:40;;;;;;;4.80;1.33;;;24.50;99.90;;;;;;5058692;28;20209;-66
2022/08/05 02:06:08;;;;;;;4.30;1.37;;;24.20;99.90;;;;;;5063249;28;20266;-66
2022/08/05 02:08:37;;;;;;;5.20;1.40;;;24.20;99.90;;;;;;5061075;28;20200;-67
2022/08/05 02:11:11;;;;;;;2.20;1.10;;;24.60;99.90;;;;;;5063456;28;20176;-69
2022/08/05 02:13:55;;;;;;;4.27;1.20;;;24.80;99.90;;;;;;5059689;28;20271;-67
2022/08/05 02:16:34;;;;;;;4.93;1.13;;;24.40;99.90;;;;;;5057836;28;20584;-67
2022/08/05 02:19:13;;;;;;;2.83;1.13;;;24.70;99.90;;;;;;5058705;28;20212;-67
2022/08/05 02:21:47;;;;;;;1.60;1.00;;;24.20;99.90;;;;;;5063606;28;20191;-68
2022/08/05 02:24:20;;;;;;;2.70;1.10;;;24.30;99.90;;;;;;5070114;28;20681;-68
2022/08/05 02:26:59;;;;;;;3.03;1.00;;;24.40;99.90;;;;;;5064976;28;20201;-67
2022/08/05 02:29:29;;;;;;;2.20;1.20;;;24.60;99.90;;;;;;5052313;28;20788;-67
2022/08/05 02:32:02;;;;;;;7.47;1.27;;;25.00;99.90;;;;;;5081998;28;20222;-70
2022/08/05 02:34:34;;;;;;;2.57;1.00;;;25.60;99.90;;;;;;5112665;28;20699;-68
2022/08/05 02:37:07;;;;;;;2.87;1.10;;;25.40;99.90;;;;;;5109842;28;20183;-67
2022/08/05 02:39:41;;;;;;;5.50;1.17;;;25.50;99.90;;;;;;5075075;28;20186;-67
2022/08/05 02:42:10;;;;;;;2.10;0.90;;;25.30;99.90;;;;;;5093084;28;20214;-65
2022/08/05 02:44:38;;;;;;;2.87;0.90;;;25.10;99.90;;;;;;5104410;28;20171;-71
2022/08/05 02:47:08;;;;;;;2.50;0.90;;;24.40;99.90;;;;;;5106501;28;20186;-67
2022/08/05 02:49:40;;;;;;;5.63;1.30;;;23.80;99.90;;;;;;5094253;28;20228;-68
2022/08/05 02:52:16;;;;;;;1.93;1.13;;;22.80;99.90;;;;;;5109463;28;20275;-67
2022/08/05 02:54:44;;;;;;;3.40;1.40;;;21.90;99.90;;;;;;5111658;28;20193;-68
2022/08/05 02:57:19;;;;;;;3.83;1.00;;;21.70;99.90;;;;;;5111963;28;20178;-66
2022/08/05 02:59:48;;;;;;;3.13;1.10;;;22.00;99.90;;;;;;5112100;28;20261;-67
2022/08/05 03:02:22;;;;;;;5.57;1.70;;;22.00;99.90;;;;;;5109927;28;20301;-67
2022/08/05 03:04:53;;;;;;;3.83;1.47;;;21.70;99.90;;;;;;5076624;28;20179;-67
2022/08/05 03:07:22;;;;;;;1.30;0.90;;;21.30;99.90;;;;;;5106930;28;20642;-66
2022/08/05 03:09:50;;;;;;;0.90;0.80;;;21.10;99.90;;;;;;5091531;28;20180;-65
2022/08/05 03:12:31;;;;;;;6.87;1.10;;;20.90;99.90;;;;;;5091767;28;20178;-67
2022/08/05 03:14:59;;;;;;;2.90;1.47;;;21.50;99.90;;;;;;5071632;28;20195;-70
2022/08/05 03:17:27;;;;;;;2.40;1.17;;;22.50;99.90;;;;;;5111189;28;20261;-68
2022/08/05 03:19:55;;;;;;;4.03;1.20;;;23.20;99.90;;;;;;5111845;28;20179;-72
2022/08/05 03:22:22;;;;;;;3.30;1.03;;;24.00;99.90;;;;;;5100375;28;20195;-69
2022/08/05 03:47:56;;;;;;;2.60;0.80;;;24.20;99.90;;;;;;4989527;28;20233;-73
2022/08/05 03:50:24;;;;;;;1.00;0.47;;;24.10;99.90;;;;;;4985081;28;20195;-73
2022/08/05 03:53:14;;;;;;;3.20;0.67;;;24.10;99.90;;;;;;4971432;28;20199;-73
2022/08/05 03:55:51;;;;;;;1.30;0.57;;;24.40;99.90;;;;;;4962550;28;20183;-73
2022/08/05 03:58:21;;;;;;;1.00;0.60;;;24.90;99.90;;;;;;4961962;28;20658;-74
2022/08/05 04:00:51;;;;;;;1.83;0.50;;;25.10;99.90;;;;;;4957012;28;20601;-74
2022/08/05 04:03:20;;;;;;;1.33;0.40;;;25.20;99.90;;;;;;4967117;28;20309;-74
2022/08/05 04:05:48;;;;;;;3.73;0.70;;;25.30;99.20;;;;;;4974748;28;20190;-75
2022/08/05 04:08:17;;;;;;;3.53;0.70;;;25.20;87.10;;;;;;4969229;28;20637;-76
2022/08/05 04:10:45;;;;;;;3.07;0.50;;;24.80;68.00;;;;;;4975857;28;20811;-74
2022/08/05 04:13:13;;;;;;;1.67;0.40;;;24.60;64.60;;;;;;4976026;28;20544;-73
2022/08/05 04:15:41;;;;;;;3.07;0.70;;;24.60;66.10;;;;;;4975389;28;20254;-72
2022/08/05 04:18:09;;;;;;;0.33;0.33;;;24.40;62.80;;;;;;4968057;28;20182;-72
2022/08/05 04:20:38;;;;;;;2.77;1.10;;;24.40;61.60;;;;;;4974602;28;20520;-73
2022/08/05 04:23:06;;;;;;;1.70;0.60;;;24.40;65.00;;;;;;4967350;28;20215;-73
2022/08/05 04:25:33;;;;;;;2.10;0.50;;;24.40;60.30;;;;;;4967118;28;20235;-71
2022/08/05 04:28:01;;;;;;;1.60;0.70;;;24.30;58.00;;;;;;4977536;28;20183;-72
2022/08/05 04:30:29;;;;;;;4.27;0.77;;;24.50;57.70;;;;;;4957634;28;20180;-73
2022/08/05 04:32:57;;;;;;;6.60;0.63;;;24.40;59.00;;;;;;4956550;28;20184;-73
2022/08/05 04:35:24;;;;;;;1.90;0.70;;;24.30;56.80;;;;;;4956502;29;20216;-73
2022/08/05 04:37:52;;;;;;;6.93;0.80;;;23.90;52.40;;;;;;4956527;29;20179;-73
2022/08/05 04:40:20;;;;;;;0.63;0.50;;;23.70;53.70;;;;;;4956512;29;20187;-71
2022/08/05 04:42:48;;;;;;;1.67;0.50;;;24.00;53.40;;;;;;4956301;29;20722;-72
2022/08/05 04:45:15;;;;;;;2.93;0.57;;;24.20;54.10;;;;;;4987347;28;20195;-74
2022/08/05 04:47:43;;;;;;;3.50;0.73;;;24.40;53.00;;;;;;4967537;28;20701;-73
2022/08/05 04:50:11;;;;;;;0.70;0.50;;;24.40;51.40;;;;;;4975703;28;20238;-72
2022/08/05 04:52:39;;;;;;;1.60;0.50;;;24.40;52.80;;;;;;4975698;28;20183;-73
2022/08/05 04:55:07;;;;;;;0.53;0.33;;;24.40;54.10;;;;;;4976225;28;20253;-73
2022/08/05 04:57:34;;;;;;;2.13;0.60;;;24.40;55.50;;;;;;4975275;28;20190;-72
2022/08/05 05:00:05;;;;;;;1.10;0.40;;;24.40;54.80;;;;;;4975245;28;20210;-72
2022/08/05 05:02:33;;;;;;;3.43;0.70;;;24.20;52.60;;;;;;4975002;28;20234;-73
2022/08/05 05:05:01;;;;;;;2.03;0.70;;;23.90;52.10;;;;;;4990320;28;20524;-73
2022/08/05 05:07:29;;;;;;;4.43;0.73;;;23.80;54.60;;;;;;4975318;28;20269;-72
2022/08/05 05:10:05;;;;;;;2.13;0.87;;;23.90;54.50;;;;;;4974882;28;20596;-74
2022/08/05 05:12:33;;;;;;;0.97;0.33;;;24.00;52.30;;;;;;4974462;28;20553;-71
2022/08/05 05:15:00;;;;;;;3.07;0.70;;;23.90;53.60;;;;;;4975485;28;20307;-73
2022/08/05 05:17:28;;;;;;;2.17;0.40;;;23.90;52.20;;;;;;4975852;28;20197;-73
2022/08/05 05:19:56;;;;;;;4.97;1.03;;;23.60;53.00;;;;;;4974907;28;20330;-72
2022/08/05 05:22:24;;;;;;;2.40;0.60;;;23.60;53.70;;;;;;4974826;28;20221;-73
2022/08/05 05:24:52;;;;;;;2.30;0.60;;;23.40;53.20;;;;;;4975045;28;20176;-74
2022/08/05 05:27:20;;;;;;;2.43;0.60;;;23.20;53.40;;;;;;4974509;28;20187;-73
2022/08/05 05:29:47;;;;;;;3.73;0.63;;;23.10;55.60;;;;;;4975175;28;20266;-72
2022/08/05 05:32:15;;;;;;;0.87;0.40;;;23.10;58.60;;;;;;4993746;28;20265;-73
2022/08/05 05:34:43;;;;;;;1.03;0.43;;;22.90;57.90;;;;;;4994255;28;20182;-74
2022/08/05 05:37:13;;;;;;;1.17;0.60;;;22.90;60.50;;;;;;4960285;28;20197;-74
2022/08/05 05:39:42;;;;;;;4.73;1.00;;;22.80;59.60;;;;;;4994025;28;20696;-74
2022/08/05 05:42:10;;;;;;;2.10;0.50;;;22.70;58.50;;;;;;4993139;28;20210;-73
2022/08/05 05:44:37;;;;;;;3.50;0.70;;;22.60;60.20;;;;;;4994031;28;20265;-73
2022/08/05 05:47:05;;;;;;;1.33;0.50;;;22.60;60.00;;;;;;4993502;28;20229;-74
2022/08/05 05:49:33;;;;;;;0.87;0.60;;;22.40;59.60;;;;;;4993768;28;20179;-74
2022/08/05 05:52:01;;;;;;;2.10;0.73;;;22.20;59.50;;;;;;4980213;28;20183;-74
2022/08/05 05:54:29;;;;;;;0.57;0.40;;;22.20;61.70;;;;;;4975920;28;20175;-73
2022/08/05 05:56:56;;;;;;;2.60;0.60;;;22.20;64.80;;;;;;4993407;28;20188;-72
2022/08/05 05:59:24;;;;;;;1.37;0.70;;;22.10;59.70;;;;;;4993604;28;20243;-73
2022/08/05 06:01:52;;;;;;;2.10;0.60;;;22.00;58.30;;;;;;4982216;28;20226;-73
2022/08/05 06:04:19;;;;;;;5.57;0.67;;;21.80;59.60;;;;;;4974202;28;20183;-72
2022/08/05 06:06:47;;;;;;;1.83;0.67;;;21.80;62.10;;;;;;4990044;28;20325;-72
2022/08/05 06:09:15;;;;;;;2.40;0.67;;;21.60;63.90;;;;;;4993288;28;20178;-73
2022/08/05 06:11:44;;;;;;;2.73;0.67;;;21.60;65.10;;;;;;4991363;28;20187;-73
2022/08/05 06:14:12;;;;;;;0.97;0.50;;;21.50;65.50;;;;;;4993342;28;20178;-73
2022/08/05 06:16:41;;;;;;;8.07;0.80;;;21.40;66.00;;;;;;4993456;28;20542;-72
2022/08/05 06:19:08;;;;;;;3.03;0.60;;;21.30;66.50;;;;;;4974357;28;20179;-73
2022/08/05 06:21:36;;;;;;;1.13;0.50;;;21.20;65.70;;;;;;4986360;28;20278;-72
2022/08/05 06:24:06;;;;;;;4.07;0.93;;;21.20;67.20;;;;;;4993061;28;20247;-73
2022/08/05 06:26:34;;;;;;;9.47;1.20;;;21.10;72.00;;;;;;4993011;28;20182;-73
2022/08/05 06:29:02;;;;;;;5.83;0.80;;;21.10;72.70;;;;;;4993133;28;20645;-74
2022/08/05 06:31:30;;;;;;;2.50;0.70;;;21.00;68.80;;;;;;4963607;28;20188;-74
2022/08/05 06:33:58;;;;;;;2.60;0.57;;;20.90;69.70;;;;;;4974492;28;20185;-73
2022/08/05 06:36:25;;;;;;;0.80;0.60;;;20.90;68.30;;;;;;4982312;28;20650;-74
2022/08/05 06:38:54;;;;;;;2.33;0.50;;;20.80;69.00;;;;;;4986631;28;20196;-73
2022/08/05 06:41:22;;;;;;;2.03;0.60;;;20.80;64.70;;;;;;4974766;28;20274;-73
2022/08/05 06:43:50;;;;;;;6.57;0.80;;;20.80;63.60;;;;;;4993115;28;20226;-73
2022/08/05 06:46:18;;;;;;;3.20;0.60;;;20.70;64.70;;;;;;4993001;28;20242;-72
2022/08/05 06:48:45;;;;;;;2.70;0.53;;;20.60;66.10;;;;;;4989894;28;20230;-72
2022/08/05 06:51:13;;;;;;;1.43;0.50;;;20.50;66.60;;;;;;4973421;28;20261;-73
2022/08/05 06:53:41;;;;;;;8.33;0.70;;;20.50;68.70;;;;;;4973264;28;20187;-73
2022/08/05 06:56:09;;;;;;;2.33;0.50;;;20.40;69.40;;;;;;4973324;28;20188;-73
2022/08/05 06:58:37;;;;;;;2.93;1.00;;;20.40;70.30;;;;;;4972109;28;20656;-72
2022/08/05 07:01:06;;;;;;;0.73;0.50;;;20.20;72.80;;;;;;4978544;28;20198;-73
2022/08/05 07:03:34;;;;;;;2.17;0.97;;;20.20;73.80;;;;;;4992331;28;20289;-72
2022/08/05 07:06:03;;;;;;;1.17;0.50;;;20.00;75.90;;;;;;4992420;28;20179;-74
2022/08/05 07:08:31;;;;;;;1.27;0.40;;;19.90;76.20;;;;;;4973650;28;20198;-74
2022/08/05 07:10:59;;;;;;;2.67;0.70;;;19.70;83.40;;;;;;4956108;28;20183;-73
2022/08/05 07:18:58;;;;;;;2.93;0.93;;;19.40;86.40;;;;;;4984750;28;20199;-73
2022/08/05 07:21:26;;;;;;;2.27;1.17;;;19.20;90.90;;;;;;4991625;28;20183;-71
2022/08/05 07:23:54;;;;;;;2.27;0.70;;;19.10;93.70;;;;;;4991898;28;20221;-72
2022/08/05 07:26:22;;;;;;;1.83;0.77;;;19.00;95.00;;;;;;4989214;28;20186;-71
2022/08/05 07:28:50;;;;;;;4.80;0.73;;;18.90;98.10;;;;;;4990860;28;20223;-72
2022/08/05 07:31:19;;;;;;;2.00;0.70;;;18.80;97.80;;;;;;4981881;28;20183;-74
2022/08/05 07:33:47;;;;;;;3.97;0.87;;;18.70;99.90;;;;;;4991723;28;20597;-72
2022/08/05 07:36:14;;;;;;;2.27;0.70;;;18.50;99.90;;;;;;4991502;28;20201;-72
2022/08/05 07:38:42;;;;;;;2.77;1.00;;;18.60;99.90;;;;;;4991494;28;20183;-73
2022/08/05 07:41:17;;;;;;;3.70;0.80;;;18.70;99.60;;;;;;4992131;28;20198;-72
2022/08/05 07:43:45;;;;;;;3.77;0.83;;;18.70;98.10;;;;;;4992220;28;20229;-74
2022/08/05 07:46:13;;;;;;;1.33;0.67;;;18.80;95.50;;;;;;4992539;28;20190;-76
2022/08/05 07:48:40;;;;;;;1.93;0.97;;;18.90;95.50;;;;;;4992543;28;20244;-74
2022/08/05 07:51:08;;;;;;;5.47;0.73;;;18.90;95.00;;;;;;4974738;28;20195;-74
2022/08/05 07:53:36;;;;;;;1.53;0.80;;;18.90;92.50;;;;;;4973909;28;20627;-74
2022/08/05 07:56:05;;;;;;;4.67;0.80;;;18.90;92.10;;;;;;4991875;28;20181;-73
2022/08/05 07:58:32;;;;;;;1.90;0.67;;;18.80;91.40;;;;;;4991795;28;20187;-73
2022/08/05 08:01:00;;;;;;;2.17;0.90;;;18.80;91.50;;;;;;4972496;28;20287;-73
2022/08/05 08:03:29;;;;;;;3.77;0.73;;;18.90;85.00;;;;;;4977984;28;20209;-73
2022/08/05 08:06:00;;;;;;;2.10;0.77;;;19.00;78.50;;;;;;4959802;28;20266;-73
2022/08/05 08:08:28;;;;;;;1.73;0.70;;;19.00;79.10;;;;;;4991600;28;20190;-74
2022/08/05 08:10:56;;;;;;;1.00;0.50;;;19.00;81.40;;;;;;4991969;28;20510;-73
2022/08/05 08:13:23;;;;;;;2.40;0.57;;;18.80;82.80;;;;;;4988144;28;20175;-72
2022/08/05 08:15:51;;;;;;;1.17;0.70;;;18.80;82.90;;;;;;4972345;28;20254;-72
2022/08/05 08:18:19;;;;;;;1.50;0.60;;;18.80;80.90;;;;;;4981072;28;20186;-73
2022/08/05 08:20:48;;;;;;;2.70;0.57;;;18.80;79.00;;;;;;4991863;28;20206;-72
2022/08/05 08:23:17;;;;;;;2.67;0.70;;;18.80;78.10;;;;;;4982212;28;20218;-73
2022/08/05 08:25:45;;;;;;;0.90;0.70;;;18.70;81.60;;;;;;4982392;28;20206;-72
2022/08/05 08:28:13;;;;;;;1.73;0.70;;;18.60;80.40;;;;;;4990889;28;20573;-72
2022/08/05 08:30:41;;;;;;;2.07;0.77;;;18.60;80.40;;;;;;4988262;28;20179;-73
2022/08/05 08:33:10;;;;;;;2.53;0.70;;;18.70;77.80;;;;;;4971972;28;20262;-73
2022/08/05 08:35:38;;;;;;;1.63;0.60;;;18.70;79.90;;;;;;4972151;28;20673;-74
2022/08/05 08:38:06;;;;;;;1.57;0.80;;;18.90;74.90;;;;;;4973345;28;20274;-73
2022/08/05 08:40:35;;;;;;;1.90;0.77;;;18.80;77.10;;;;;;4991688;28;20214;-72
2022/08/05 08:43:04;;;;;;;0.60;0.60;;;18.60;78.90;;;;;;4991562;28;20289;-72
2022/08/05 08:45:32;;;;;;;1.30;0.57;;;18.60;80.30;;;;;;4977067;28;20767;-71
2022/08/05 08:48:03;;;;;;;1.10;0.87;;;18.50;83.00;;;;;;4994452;28;20257;-71
2022/08/05 08:50:34;;;;;;;3.60;1.27;;;18.30;90.10;;;;;;4975811;28;20299;-73
2022/08/05 08:53:05;;;;;;;3.43;0.87;;;18.20;89.10;;;;;;4994567;28;20894;-72
2022/08/05 08:55:34;;;;;;;1.30;0.70;;;18.10;90.10;;;;;;4994673;28;20220;-73
2022/08/05 08:58:02;;;;;;;1.97;0.90;;;18.00;92.00;;;;;;4991396;28;20278;-73
2022/08/05 09:00:30;;;;;;;1.07;0.77;;;17.90;94.20;;;;;;4994788;28;20186;-72
2022/08/05 09:02:58;;;;;;;2.07;1.10;;;17.90;92.80;;;;;;4994397;28;20222;-72
2022/08/05 09:05:26;;;;;;;2.30;1.03;;;17.90;95.10;;;;;;4994667;28;20313;-73
2022/08/05 09:07:54;;;;;;;4.30;1.20;;;17.90;95.10;;;;;;4989449;28;20183;-72
2022/08/05 09:10:22;;;;;;;1.50;0.80;;;17.80;98.10;;;;;;4974825;28;20195;-72
2022/08/05 09:12:50;;;;;;;1.10;0.90;;;17.70;98.80;;;;;;4975170;28;20191;-72
2022/08/05 09:15:18;;;;;;;4.17;0.83;;;17.60;99.90;;;;;;4975008;28;20192;-71
2022/08/05 09:17:46;;;;;;;1.37;0.90;;;17.50;99.90;;;;;;4978306;28;20205;-72
2022/08/05 09:20:14;;;;;;;1.37;0.87;;;17.50;99.90;;;;;;4994474;28;20189;-73
2022/08/05 09:23:25;;;;;;;1.83;1.13;;;17.40;99.90;;;;;;4994406;28;20221;-73
2022/08/05 09:26:10;;;;;;;5.27;1.10;;;17.40;99.90;;;;;;4991344;28;20195;-72
2022/08/05 09:28:39;;;;;;;2.30;1.10;;;17.40;99.90;;;;;;4988845;28;20650;-74
2022/08/05 09:31:10;;;;;;;2.47;1.17;;;17.30;99.90;;;;;;4994656;28;20191;-71
2022/08/05 09:33:54;;;;;;;6.43;1.40;;;17.20;99.90;;;;;;4994218;28;20178;-72
2022/08/05 09:36:22;;;;;;;1.83;1.10;;;17.10;99.90;;;;;;4984536;28;20181;-72
2022/08/05 09:39:07;;;;;;;1.97;1.00;;;17.10;99.90;;;;;;4989942;28;20217;-71
2022/08/05 09:41:53;;;;;;;3.53;1.20;;;17.20;99.90;;;;;;4978159;28;20549;-72
2022/08/05 09:44:41;;;;;;;3.50;1.00;;;17.10;99.90;;;;;;4995581;28;20201;-72
2022/08/05 09:47:20;;;;;;;5.47;1.07;;;16.90;99.90;;;;;;4994765;28;20230;-72
2022/08/05 09:49:51;;;;;;;4.23;0.93;;;16.90;99.90;;;;;;4995363;28;20197;-72
2022/08/05 09:52:35;;;;;;;5.57;1.30;;;16.70;99.90;;;;;;4995282;28;20198;-71
2022/08/05 09:55:08;;;;;;;3.87;0.90;;;16.60;99.90;;;;;;4995032;28;20182;-71
2022/08/05 09:57:38;;;;;;;2.27;1.00;;;16.70;99.90;;;;;;4995429;28;20201;-71
2022/08/05 10:00:20;;;;;;;1.83;1.20;;;16.70;99.90;;;;;;4977866;28;20183;-72
2022/08/05 10:02:50;;;;;;;2.37;1.00;;;16.60;99.90;;;;;;4995040;28;20241;-72
2022/08/05 10:05:21;;;;;;;2.23;1.00;;;16.60;99.90;;;;;;4995178;28;20202;-72
2022/08/05 10:07:53;;;;;;;4.77;1.03;;;16.60;99.90;;;;;;4995041;28;20265;-71
2022/08/05 10:10:26;;;;;;;5.60;1.10;;;16.60;99.90;;;;;;4995208;28;20720;-71
2022/08/05 10:12:56;;;;;;;3.80;1.53;;;16.60;99.90;;;;;;4994965;28;20179;-72
2022/08/05 10:15:29;;;;;;;4.73;0.87;;;16.40;99.90;;;;;;4994241;28;20182;-72
2022/08/05 10:18:21;;;;;;;4.73;1.00;;;16.50;99.90;;;;;;4995113;28;20175;-72
2022/08/05 10:20:55;;;;;;;5.50;1.17;;;16.50;99.90;;;;;;4995036;28;20194;-72
2022/08/05 10:23:29;;;;;;;1.67;0.90;;;16.50;99.90;;;;;;4994981;28;20241;-73
2022/08/05 10:26:01;;;;;;;1.60;0.87;;;16.60;99.90;;;;;;4994807;28;20179;-72
2022/08/05 10:28:30;;;;;;;1.10;0.80;;;16.60;99.90;;;;;;4994700;28;20262;-72
2022/08/05 10:30:59;;;;;;;1.37;1.17;;;16.70;99.90;;;;;;4994744;28;20174;-73
2022/08/05 10:33:30;;;;;;;3.43;0.90;;;16.70;99.90;;;;;;4994731;28;20182;-73
2022/08/05 10:35:59;;;;;;;4.13;0.90;;;16.60;99.90;;;;;;4994196;28;20210;-72
2022/08/05 10:38:29;;;;;;;2.03;0.90;;;16.60;99.90;;;;;;4994575;28;20178;-72
2022/08/05 10:41:07;;;;;;;4.77;1.10;;;16.60;99.90;;;;;;4994620;28;20580;-73
2022/08/05 10:43:59;;;;;;;3.17;1.10;;;16.60;99.90;;;;;;4994034;28;20261;-72
2022/08/05 10:46:46;;;;;;;4.70;1.13;;;16.40;99.90;;;;;;4974591;28;20206;-72
2022/08/05 10:49:14;;;;;;;2.67;0.90;;;16.50;99.90;;;;;;4975496;28;20179;-72
2022/08/05 10:52:02;;;;;;;2.17;0.87;;;16.50;99.90;;;;;;4975261;28;20694;-73
2022/08/05 10:55:01;;;;;;;2.60;1.17;;;16.60;99.90;;;;;;4957474;28;20557;-72
2022/08/05 10:57:29;;;;;;;3.63;1.00;;;16.60;99.90;;;;;;4974899;28;20202;-72
2022/08/05 11:00:28;;;;;;;1.30;1.00;;;16.70;99.90;;;;;;4979480;28;20198;-72
2022/08/05 11:03:11;;;;;;;2.53;1.00;;;16.70;99.90;;;;;;4975825;28;20210;-72
2022/08/05 11:05:39;;;;;;;5.00;0.80;;;16.80;99.90;;;;;;4976458;28;20276;-73
2022/08/05 11:08:10;;;;;;;2.17;0.77;;;16.80;99.90;;;;;;4993139;28;20191;-71
2022/08/05 11:10:41;;;;;;;2.73;0.80;;;16.70;99.90;;;;;;4993924;28;20273;-72
2022/08/05 11:13:09;;;;;;;1.83;0.77;;;16.60;99.90;;;;;;4994049;28;20178;-72
2022/08/05 11:15:42;;;;;;;4.33;0.90;;;16.50;99.90;;;;;;4993890;28;20260;-71
2022/08/05 11:18:28;;;;;;;2.87;0.80;;;16.50;99.90;;;;;;4993725;28;20569;-72
2022/08/05 11:20:56;;;;;;;3.40;0.90;;;16.60;99.90;;;;;;4993966;28;20198;-72
2022/08/05 11:23:42;;;;;;;1.17;0.70;;;16.60;99.90;;;;;;4993858;28;20334;-71
2022/08/05 11:26:30;;;;;;;1.17;1.00;;;16.60;99.90;;;;;;4993792;28;20171;-71
2022/08/05 11:28:58;;;;;;;4.13;0.90;;;16.30;99.90;;;;;;4993723;28;20177;-71
2022/08/05 11:31:30;;;;;;;1.90;0.90;;;16.20;99.90;;;;;;4993919;28;20206;-72
2022/08/05 11:34:06;;;;;;;3.70;1.00;;;16.20;99.90;;;;;;4993514;28;20170;-71
2022/08/05 11:36:50;;;;;;;2.00;0.80;;;16.10;99.90;;;;;;4993693;28;20248;-72
2022/08/05 11:39:48;;;;;;;1.10;0.90;;;16.00;99.90;;;;;;4993897;28;20182;-72
2022/08/05 11:42:22;;;;;;;3.27;1.37;;;15.80;99.90;;;;;;4993495;28;20582;-72
2022/08/05 11:44:51;;;;;;;5.57;1.40;;;15.60;99.90;;;;;;4993531;28;20182;-72
2022/08/05 11:47:26;;;;;;;3.03;1.20;;;15.40;99.90;;;;;;4974497;28;20251;-72
2022/08/05 11:50:00;;;;;;;2.37;1.30;;;15.20;99.90;;;;;;4974111;28;20186;-72
2022/08/05 11:52:28;;;;;;;2.17;1.10;;;15.00;99.90;;;;;;4974218;28;20682;-73
2022/08/05 11:54:58;;;;;;;3.20;1.00;;;14.80;99.90;;;;;;4974319;28;20189;-73
2022/08/05 11:57:30;;;;;;;3.53;1.00;;;14.50;99.90;;;;;;4974099;28;20179;-73
2022/08/05 11:59:58;;;;;;;1.63;0.80;;;14.40;99.90;;;;;;4973673;28;20191;-71
2022/08/05 12:02:31;;;;;;;2.63;1.00;;;14.20;99.90;;;;;;4955048;28;20239;-71
2022/08/05 12:05:00;;;;;;;4.53;1.40;;;14.00;99.90;;;;;;4973451;28;20191;-73
2022/08/05 12:07:34;;;;;;;3.20;1.23;;;13.80;99.90;;;;;;4973068;28;20195;-73
2022/08/05 12:10:03;;;;;;;2.63;1.10;;;13.70;99.90;;;;;;4973820;28;20197;-72
2022/08/05 12:12:31;;;;;;;1.70;1.03;;;13.50;99.90;;;;;;4973066;28;20197;-72
2022/08/05 12:14:59;;;;;;;2.50;1.27;;;13.40;99.90;;;;;;4970277;28;20269;-72
2022/08/05 12:17:34;;;;;;;2.77;1.33;;;13.20;99.90;;;;;;4972821;28;20191;-73
2022/08/05 12:20:06;;;;;;;3.63;1.57;;;13.20;99.90;;;;;;4977781;28;20182;-73
2022/08/05 12:22:33;;;;;;;3.27;1.30;;;13.20;99.90;;;;;;4959209;28;20207;-73
2022/08/05 12:25:01;;;;;;;6.07;1.57;;;13.10;99.90;;;;;;4973934;28;20190;-72
2022/08/05 12:27:32;;;;;;;4.87;1.40;;;13.00;99.90;;;;;;4976178;28;20193;-72
2022/08/05 12:30:05;;;;;;;5.57;1.57;;;12.90;99.90;;;;;;4975898;28;20186;-72
2022/08/05 12:32:34;;;;;;;2.53;1.30;;;12.80;99.90;;;;;;4977501;28;20196;-72
2022/08/05 12:35:06;;;;;;;5.30;1.40;;;12.80;99.90;;;;;;4976390;28;20205;-72
2022/08/05 12:37:34;;;;;;;3.43;1.50;;;12.80;99.90;;;;;;4977348;28;20285;-72
2022/08/05 12:40:03;;;;;;;2.57;1.30;;;12.70;99.90;;;;;;4977528;28;20261;-72
2022/08/05 12:42:31;;;;;;;3.00;1.30;;;12.60;99.90;;;;;;4959775;28;20226;-72
2022/08/05 12:45:17;;;;;;;2.70;1.20;;;12.50;99.90;;;;;;4973015;28;20190;-73
2022/08/05 12:47:45;;;;;;;3.70;1.43;;;12.50;99.90;;;;;;4975469;28;20240;-73
2022/08/05 12:50:17;;;;;;;2.53;1.20;;;12.50;99.90;;;;;;4977056;28;20554;-72
2022/08/05 12:52:58;;;;;;;4.57;1.13;;;12.60;99.90;;;;;;4977065;28;20170;-72
2022/08/05 12:55:28;;;;;;;2.20;1.13;;;12.70;99.90;;;;;;4958030;28;20186;-73
2022/08/05 12:57:57;;;;;;;1.60;1.23;;;12.90;99.90;;;;;;4957710;29;20607;-72
2022/08/05 13:00:30;;;;;;;4.33;1.17;;;12.80;99.90;;;;;;4958043;28;20177;-72
2022/08/05 13:02:57;;;;;;;4.47;1.40;;;12.90;99.90;;;;;;4957575;28;20215;-72
2022/08/05 13:05:26;;;;;;;3.80;1.20;;;12.90;99.90;;;;;;4958570;28;20190;-73
2022/08/05 13:07:57;;;;;;;1.43;1.20;;;12.90;99.90;;;;;;4957809;28;20212;-72
2022/08/05 13:10:25;;;;;;;5.40;1.30;;;12.80;99.90;;;;;;4971423;28;20203;-73
2022/08/05 13:12:56;;;;;;;1.93;1.23;;;12.80;99.90;;;;;;4975452;28;20209;-72
2022/08/05 13:15:31;;;;;;;3.50;1.57;;;12.80;99.90;;;;;;4960834;28;20192;-72
2022/08/05 13:17:59;;;;;;;4.30;1.33;;;12.70;99.90;;;;;;4957712;29;20180;-72
2022/08/05 13:20:36;;;;;;;3.17;1.37;;;12.80;99.90;;;;;;4963808;28;20191;-72
2022/08/05 13:23:04;;;;;;;3.93;1.30;;;12.90;99.90;;;;;;4976149;28;20306;-72
2022/08/05 13:25:36;;;;;;;7.07;1.40;;;13.00;99.90;;;;;;4959226;28;20191;-73
2022/08/05 13:28:05;;;;;;;3.27;1.67;;;13.00;99.90;;;;;;4957098;28;20550;-72
2022/08/05 13:30:33;;;;;;;6.80;1.53;;;13.00;99.90;;;;;;4987587;28;20288;-71
2022/08/05 13:33:00;;;;;;;2.50;1.50;;;12.90;99.90;;;;;;4956925;28;20187;-71
2022/08/05 13:35:29;;;;;;;1.93;1.27;;;12.90;99.90;;;;;;4972673;28;20653;-72